Time;durP1;ratioP1;P1;durP2;ratioP2;P2;SDS_P1;SDS_P2;PMS_P1;PMS_P2;Temp;Humidity;BMP_temperature;BMP_pressure;BME280_temperature;BME280_humidity;BME280_pressure;Samples;Min_cycle;Max_cycle;Signal;HPM_P1;HPM_P2
2022/09/12 00:00:48;;;;;;;3.20;3.00;;;14.80;97.30;;;;;;4994295;28;20412;-92
2022/09/12 00:03:14;;;;;;;8.30;5.17;;;14.80;97.30;;;;;;5011186;28;20442;-92
2022/09/12 00:05:41;;;;;;;8.13;3.60;;;14.80;97.30;;;;;;4994090;28;21235;-93
2022/09/12 00:08:07;;;;;;;3.70;3.40;;;14.80;97.30;;;;;;4993902;28;20181;-92
2022/09/12 00:10:35;;;;;;;5.30;2.67;;;14.80;97.30;;;;;;4994122;28;20824;-91
2022/09/12 00:13:01;;;;;;;7.80;4.70;;;14.80;97.30;;;;;;4994010;28;20486;-92
2022/09/12 00:15:26;;;;;;;4.57;3.23;;;14.80;97.30;;;;;;4994132;28;20428;-92
2022/09/12 00:17:52;;;;;;;4.60;3.00;;;14.70;97.30;;;;;;5008361;28;20229;-92
2022/09/12 00:20:17;;;;;;;18.90;5.70;;;14.80;97.30;;;;;;4999000;28;20181;-92
2022/09/12 00:22:43;;;;;;;7.60;3.27;;;14.70;97.30;;;;;;4998329;28;20169;-92
2022/09/12 00:25:08;;;;;;;3.23;2.77;;;14.70;97.30;;;;;;4993853;28;20324;-92
2022/09/12 00:27:34;;;;;;;7.37;3.73;;;14.70;97.30;;;;;;4994186;28;20231;-92
2022/09/12 00:29:59;;;;;;;9.80;5.80;;;14.60;97.30;;;;;;4993724;28;20219;-92
2022/09/12 00:32:25;;;;;;;4.30;2.90;;;14.60;97.30;;;;;;4993673;28;20191;-92
2022/09/12 00:34:50;;;;;;;4.20;2.87;;;14.60;97.30;;;;;;4998359;28;20553;-91
2022/09/12 00:37:16;;;;;;;6.70;3.50;;;14.60;97.30;;;;;;4997308;28;20592;-92
2022/09/12 00:39:41;;;;;;;9.90;4.07;;;14.60;97.30;;;;;;4982448;28;20231;-92
2022/09/12 00:42:10;;;;;;;4.03;3.83;;;14.60;97.30;;;;;;5009192;28;20170;-93
2022/09/12 00:44:45;;;;;;;4.87;3.57;;;14.60;97.30;;;;;;4993812;28;20185;-92
2022/09/12 00:47:26;;;;;;;4.23;2.63;;;14.60;97.30;;;;;;4993234;28;20974;-92
2022/09/12 00:50:00;;;;;;;3.87;3.70;;;14.60;97.30;;;;;;5011155;28;20811;-92
2022/09/12 00:52:38;;;;;;;5.77;2.17;;;14.60;97.30;;;;;;4993369;28;20412;-92
2022/09/12 00:55:13;;;;;;;5.57;3.27;;;14.60;97.30;;;;;;4993567;28;20428;-92
2022/09/12 00:57:48;;;;;;;4.13;3.07;;;14.60;97.30;;;;;;4993430;28;20467;-92
2022/09/12 01:00:18;;;;;;;9.77;4.80;;;14.60;97.30;;;;;;4992879;28;20423;-92
2022/09/12 01:02:48;;;;;;;6.43;4.33;;;14.60;97.30;;;;;;4993746;28;20503;-92
2022/09/12 01:05:13;;;;;;;7.13;3.80;;;14.60;97.30;;;;;;4993004;28;20421;-92
2022/09/12 01:07:40;;;;;;;9.53;3.27;;;14.60;97.30;;;;;;5001604;28;20436;-92
2022/09/12 01:10:07;;;;;;;4.80;2.73;;;14.60;97.30;;;;;;4998115;28;20243;-92
2022/09/12 01:12:33;;;;;;;5.30;4.30;;;14.60;97.30;;;;;;4993958;28;20427;-92
2022/09/12 01:14:59;;;;;;;10.40;3.57;;;14.60;97.30;;;;;;4993101;28;20458;-92
2022/09/12 01:17:37;;;;;;;7.50;2.93;;;14.50;97.30;;;;;;4993395;28;20484;-92
2022/09/12 01:20:20;;;;;;;16.07;3.60;;;14.50;97.30;;;;;;4992967;28;20666;-92
2022/09/12 01:23:14;;;;;;;8.70;2.90;;;14.50;97.30;;;;;;4993167;28;20423;-92
2022/09/12 01:26:19;;;;;;;12.40;2.97;;;14.50;97.30;;;;;;4990142;28;20436;-92
2022/09/12 01:29:01;;;;;;;4.50;2.23;;;14.50;97.30;;;;;;4997800;28;20421;-92
2022/09/12 01:31:56;;;;;;;5.93;4.50;;;14.50;97.30;;;;;;4972831;28;20450;-92
2022/09/12 01:34:27;;;;;;;4.90;3.13;;;14.40;97.30;;;;;;4990122;28;20420;-90
2022/09/12 01:37:27;;;;;;;10.73;3.50;;;14.40;97.30;;;;;;4992869;28;20542;-90
2022/09/12 01:40:09;;;;;;;2.57;1.67;;;14.40;97.30;;;;;;4993354;28;20792;-90
2022/09/12 01:42:53;;;;;;;9.73;2.90;;;14.40;97.30;;;;;;4993303;28;20466;-91
2022/09/12 01:45:35;;;;;;;2.70;2.37;;;14.40;97.30;;;;;;4991848;28;20487;-89
2022/09/12 01:48:15;;;;;;;1.87;1.80;;;14.30;97.30;;;;;;4994427;28;20523;-90
2022/09/12 01:50:50;;;;;;;4.33;2.80;;;14.30;97.30;;;;;;5008539;28;20478;-90
2022/09/12 01:53:23;;;;;;;5.70;3.63;;;14.30;97.30;;;;;;4996200;28;20431;-90
2022/09/12 01:56:21;;;;;;;6.97;3.83;;;14.30;97.30;;;;;;4996172;28;20459;-90
2022/09/12 01:59:16;;;;;;;4.83;2.40;;;14.30;97.30;;;;;;4994980;28;20542;-90
2022/09/12 02:02:02;;;;;;;5.47;2.87;;;14.30;97.30;;;;;;5006988;28;20515;-90
2022/09/12 02:04:33;;;;;;;7.73;3.30;;;14.20;97.30;;;;;;4996087;28;20420;-90
2022/09/12 02:07:05;;;;;;;5.43;3.50;;;14.20;97.30;;;;;;4987913;28;20440;-90
2022/09/12 02:09:39;;;;;;;2.70;1.90;;;14.20;97.30;;;;;;5004366;28;20451;-90
2022/09/12 02:12:10;;;;;;;7.93;4.10;;;14.20;97.30;;;;;;4993132;28;20462;-90
2022/09/12 02:14:49;;;;;;;3.40;2.30;;;14.10;97.30;;;;;;4983683;28;20952;-90
2022/09/12 02:17:22;;;;;;;7.73;3.63;;;14.10;97.30;;;;;;4995324;28;20483;-90
2022/09/12 02:20:26;;;;;;;5.40;3.07;;;14.10;97.30;;;;;;4999707;28;20437;-90
2022/09/12 02:22:54;;;;;;;6.60;2.40;;;14.00;97.30;;;;;;4989137;28;20448;-90
2022/09/12 02:25:22;;;;;;;5.10;2.50;;;14.00;97.30;;;;;;4996870;28;20437;-90
2022/09/12 02:28:09;;;;;;;8.13;3.37;;;14.00;97.30;;;;;;5010281;28;20436;-90
2022/09/12 02:30:45;;;;;;;4.57;3.63;;;14.00;97.30;;;;;;5013789;28;20417;-90
2022/09/12 02:33:22;;;;;;;5.50;4.13;;;14.00;97.30;;;;;;5015792;28;20440;-90
2022/09/12 02:36:12;;;;;;;4.97;3.73;;;13.90;97.30;;;;;;5018559;28;20411;-90
2022/09/12 02:38:44;;;;;;;8.20;3.37;;;13.90;97.30;;;;;;5005976;28;20539;-90
2022/09/12 02:41:13;;;;;;;6.40;4.00;;;13.90;97.30;;;;;;4987392;28;20428;-90
2022/09/12 02:43:39;;;;;;;4.77;2.80;;;13.90;97.30;;;;;;4991555;28;20418;-90
2022/09/12 02:46:10;;;;;;;8.80;4.33;;;13.90;97.30;;;;;;4994918;28;20926;-90
2022/09/12 02:48:40;;;;;;;12.47;5.20;;;13.80;97.30;;;;;;4992557;28;20467;-90
2022/09/12 02:51:06;;;;;;;6.77;3.03;;;13.80;97.30;;;;;;4992327;28;20429;-90
2022/09/12 02:53:32;;;;;;;5.20;3.37;;;13.80;97.30;;;;;;4995377;28;20420;-89
2022/09/12 02:55:58;;;;;;;5.57;2.90;;;13.70;97.30;;;;;;4995413;28;20201;-90
2022/09/12 02:58:27;;;;;;;8.17;4.63;;;13.70;97.30;;;;;;4995588;28;20514;-90
2022/09/12 03:00:59;;;;;;;6.53;3.87;;;13.70;97.30;;;;;;4995161;28;20185;-90
2022/09/12 03:03:51;;;;;;;3.10;2.40;;;13.70;97.30;;;;;;4995116;28;20421;-90
2022/09/12 03:06:48;;;;;;;10.40;4.57;;;13.70;97.30;;;;;;4993580;28;20440;-90
2022/09/12 03:09:40;;;;;;;7.80;3.63;;;13.60;97.30;;;;;;4975755;28;20421;-90
2022/09/12 03:12:28;;;;;;;4.80;2.73;;;13.60;97.30;;;;;;4984652;28;20503;-90
2022/09/12 03:15:09;;;;;;;7.63;2.90;;;13.50;97.30;;;;;;4983270;28;20428;-90
2022/09/12 03:17:54;;;;;;;8.73;3.10;;;13.50;97.30;;;;;;5011920;28;21080;-89
2022/09/12 03:20:26;;;;;;;4.90;3.53;;;13.40;97.30;;;;;;4987013;28;20867;-89
2022/09/12 03:22:55;;;;;;;2.47;2.13;;;13.40;97.30;;;;;;4995077;28;20413;-90
2022/09/12 03:25:36;;;;;;;5.70;5.27;;;13.40;97.30;;;;;;4994905;28;20428;-90
2022/09/12 03:28:08;;;;;;;3.73;3.03;;;13.30;97.30;;;;;;4983528;28;20424;-90
2022/09/12 03:30:42;;;;;;;4.57;3.47;;;13.30;97.30;;;;;;5001567;28;20416;-90
2022/09/12 03:33:26;;;;;;;6.23;3.27;;;13.20;97.30;;;;;;5018865;28;20436;-90
2022/09/12 03:35:52;;;;;;;7.07;4.67;;;13.20;97.30;;;;;;5013193;28;20409;-91
2022/09/12 03:38:18;;;;;;;9.93;4.03;;;13.10;97.30;;;;;;4999728;28;20475;-90
2022/09/12 03:40:45;;;;;;;4.73;2.73;;;13.10;97.30;;;;;;4994974;28;20426;-90
2022/09/12 03:43:11;;;;;;;7.20;4.87;;;13.10;97.30;;;;;;5012501;28;20918;-90
2022/09/12 03:45:39;;;;;;;4.37;2.40;;;13.00;97.30;;;;;;5011700;28;20515;-88
2022/09/12 03:48:05;;;;;;;2.90;2.27;;;13.00;97.30;;;;;;4994152;28;20187;-89
2022/09/12 03:50:31;;;;;;;6.03;3.97;;;12.90;97.30;;;;;;4989025;28;20417;-89
2022/09/12 03:53:00;;;;;;;5.27;3.00;;;12.80;97.30;;;;;;4986636;28;20569;-90
2022/09/12 03:55:26;;;;;;;2.67;2.47;;;12.80;97.30;;;;;;4994407;28;20177;-90
2022/09/12 03:57:52;;;;;;;4.00;3.10;;;12.80;97.30;;;;;;4994349;28;20478;-89
2022/09/12 04:00:22;;;;;;;4.43;3.73;;;12.80;97.30;;;;;;4994231;28;20408;-89
2022/09/12 04:02:52;;;;;;;5.30;3.07;;;12.80;97.30;;;;;;4994062;28;20985;-90
2022/09/12 04:05:18;;;;;;;5.70;3.83;;;12.70;97.30;;;;;;4992845;28;20514;-89
2022/09/12 04:07:43;;;;;;;3.53;2.73;;;12.70;97.30;;;;;;5013969;28;20538;-90
2022/09/12 04:10:09;;;;;;;2.70;2.50;;;12.70;97.30;;;;;;4993389;28;20225;-89
2022/09/12 04:12:34;;;;;;;3.43;3.23;;;12.60;97.30;;;;;;4977575;28;20196;-90
2022/09/12 04:15:00;;;;;;;4.00;3.67;;;12.60;97.30;;;;;;4996786;28;20177;-91
2022/09/12 04:17:25;;;;;;;2.70;2.37;;;12.60;97.30;;;;;;5009807;28;20229;-92
2022/09/12 04:19:51;;;;;;;4.97;2.73;;;12.60;97.30;;;;;;4998082;28;20176;-91
2022/09/12 04:22:16;;;;;;;5.03;2.87;;;12.60;97.30;;;;;;5009942;28;20279;-91
2022/09/12 04:24:42;;;;;;;4.17;3.00;;;12.60;97.30;;;;;;5006420;28;20181;-92
2022/09/12 04:27:07;;;;;;;3.57;3.20;;;12.60;97.30;;;;;;4993699;28;20284;-92
2022/09/12 04:29:34;;;;;;;6.40;3.43;;;12.50;97.30;;;;;;5000923;28;20188;-91
2022/09/12 04:31:59;;;;;;;16.23;2.90;;;12.50;97.30;;;;;;5003381;28;20188;-91
2022/09/12 04:34:25;;;;;;;3.60;3.33;;;12.50;97.30;;;;;;4993851;28;20416;-91
2022/09/12 04:36:51;;;;;;;7.27;5.13;;;12.60;97.30;;;;;;5013556;28;20187;-91
2022/09/12 04:39:16;;;;;;;9.73;3.67;;;12.60;97.30;;;;;;4994578;28;20212;-91
2022/09/12 04:41:42;;;;;;;7.97;3.80;;;12.60;97.30;;;;;;4994059;28;20684;-92
2022/09/12 04:44:11;;;;;;;4.47;3.47;;;12.60;97.30;;;;;;5004041;28;20185;-92
2022/09/12 04:46:40;;;;;;;1.77;1.63;;;12.60;97.30;;;;;;4993406;28;20607;-92
2022/09/12 04:49:06;;;;;;;7.80;3.90;;;12.60;97.30;;;;;;4993696;28;20439;-92
2022/09/12 04:51:34;;;;;;;14.93;7.13;;;12.70;97.30;;;;;;4992859;28;20554;-92
2022/09/12 04:54:07;;;;;;;6.87;3.80;;;12.70;97.30;;;;;;4993269;28;20447;-92
2022/09/12 04:56:36;;;;;;;6.20;2.77;;;12.70;97.30;;;;;;4993001;28;20789;-92
2022/09/12 04:59:01;;;;;;;6.73;3.00;;;12.80;97.30;;;;;;4993221;28;20476;-91
2022/09/12 05:01:28;;;;;;;5.37;2.50;;;12.80;97.30;;;;;;4993201;28;20420;-91
2022/09/12 05:03:55;;;;;;;7.47;4.07;;;12.80;97.30;;;;;;4993450;28;20186;-90
2022/09/12 05:06:29;;;;;;;5.17;3.07;;;12.90;97.30;;;;;;4992667;28;20986;-92
2022/09/12 05:08:57;;;;;;;4.80;3.67;;;12.90;97.30;;;;;;4993429;28;20793;-91
2022/09/12 05:11:25;;;;;;;6.10;4.00;;;12.90;97.30;;;;;;4990623;28;20550;-92
2022/09/12 05:13:51;;;;;;;7.27;4.40;;;12.90;97.30;;;;;;4983625;28;20424;-91
2022/09/12 05:16:19;;;;;;;4.00;3.47;;;12.90;97.30;;;;;;4991002;28;20740;-91
2022/09/12 05:18:45;;;;;;;4.63;2.20;;;12.90;97.30;;;;;;5011222;28;20463;-91
2022/09/12 05:21:14;;;;;;;3.77;3.07;;;12.90;97.30;;;;;;4992826;28;20417;-91
2022/09/12 05:23:40;;;;;;;6.70;4.00;;;12.90;97.30;;;;;;4996572;28;20436;-91
2022/09/12 05:26:06;;;;;;;9.53;3.60;;;12.90;97.30;;;;;;4996064;28;20537;-91
2022/09/12 05:28:36;;;;;;;5.07;3.90;;;12.90;97.30;;;;;;4997073;28;20502;-92
2022/09/12 05:31:17;;;;;;;13.63;6.13;;;12.90;97.30;;;;;;4996489;28;20423;-91
2022/09/12 05:33:45;;;;;;;5.53;4.47;;;12.90;97.30;;;;;;5013782;28;20424;-91
2022/09/12 05:36:13;;;;;;;11.20;4.33;;;12.90;97.30;;;;;;4996613;28;20446;-91
2022/09/12 05:38:39;;;;;;;6.60;4.00;;;12.90;97.30;;;;;;4996378;28;20456;-91
2022/09/12 05:41:07;;;;;;;5.20;3.57;;;13.00;97.30;;;;;;4996384;28;21023;-91
2022/09/12 05:43:37;;;;;;;13.53;6.47;;;13.00;97.30;;;;;;4996396;28;20177;-92
2022/09/12 05:46:11;;;;;;;11.70;3.90;;;13.00;97.30;;;;;;4995453;28;20493;-92
2022/09/12 05:48:38;;;;;;;4.40;3.00;;;13.00;97.30;;;;;;4996405;28;20431;-91
2022/09/12 05:51:10;;;;;;;4.40;2.33;;;13.00;97.30;;;;;;4995962;28;20481;-91
2022/09/12 05:53:37;;;;;;;4.60;3.47;;;13.00;97.30;;;;;;4995077;28;20441;-91
2022/09/12 05:56:11;;;;;;;4.67;3.40;;;13.00;97.30;;;;;;4991506;28;20444;-92
2022/09/12 05:58:39;;;;;;;8.37;4.77;;;13.00;97.30;;;;;;4986842;28;20556;-91
2022/09/12 06:01:16;;;;;;;9.43;3.63;;;13.00;97.30;;;;;;5010453;28;20444;-91
2022/09/12 06:03:45;;;;;;;6.80;3.93;;;13.00;97.30;;;;;;4992408;28;20477;-91
2022/09/12 06:06:14;;;;;;;7.87;4.33;;;13.10;97.30;;;;;;4994277;28;20562;-91
2022/09/12 06:08:41;;;;;;;7.27;4.80;;;13.10;97.30;;;;;;4994168;28;20424;-90
2022/09/12 06:11:09;;;;;;;7.67;5.00;;;13.10;97.30;;;;;;4994464;28;21192;-92
2022/09/12 06:13:36;;;;;;;6.53;3.57;;;13.10;97.30;;;;;;4992850;28;20436;-91
2022/09/12 06:16:07;;;;;;;5.00;3.67;;;13.20;97.30;;;;;;4991396;28;20458;-90
2022/09/12 06:18:34;;;;;;;19.10;7.07;;;13.20;97.30;;;;;;4987624;28;20499;-92
2022/09/12 06:21:04;;;;;;;7.97;5.03;;;13.30;97.30;;;;;;4992897;28;20424;-91
2022/09/12 06:23:31;;;;;;;7.77;6.00;;;13.30;97.30;;;;;;4995866;28;20428;-92
2022/09/12 06:25:57;;;;;;;5.30;4.80;;;13.40;97.30;;;;;;5008066;28;20437;-91
2022/09/12 06:28:23;;;;;;;5.90;5.17;;;13.40;97.30;;;;;;4986496;28;20438;-91
2022/09/12 06:30:49;;;;;;;8.40;5.63;;;13.50;97.30;;;;;;4995206;28;20185;-91
2022/09/12 06:33:15;;;;;;;10.23;5.70;;;13.50;97.30;;;;;;4994663;28;20475;-92
2022/09/12 06:35:41;;;;;;;10.77;6.27;;;13.60;97.30;;;;;;4994928;28;20177;-92
2022/09/12 06:38:07;;;;;;;8.57;4.20;;;13.70;97.30;;;;;;5011597;28;20518;-90
2022/09/12 06:40:32;;;;;;;16.33;5.73;;;13.70;97.30;;;;;;4999223;28;20197;-91
2022/09/12 06:43:00;;;;;;;5.87;4.60;;;13.70;97.30;;;;;;4996637;28;20809;-91
2022/09/12 06:45:26;;;;;;;7.77;5.20;;;13.80;97.30;;;;;;4999193;28;20181;-91
2022/09/12 06:47:51;;;;;;;9.33;4.93;;;13.80;97.30;;;;;;5003427;28;20877;-92
2022/09/12 06:50:17;;;;;;;11.33;5.77;;;13.90;97.30;;;;;;4995245;28;20424;-91
2022/09/12 06:52:43;;;;;;;6.43;4.40;;;14.00;97.30;;;;;;4995340;28;20189;-90
2022/09/12 06:55:08;;;;;;;7.80;4.63;;;14.00;97.30;;;;;;4995278;28;20184;-91
2022/09/12 06:57:35;;;;;;;13.00;5.40;;;14.10;97.30;;;;;;4995089;28;20472;-91
2022/09/12 07:00:04;;;;;;;14.40;7.70;;;14.20;97.30;;;;;;4995152;28;20181;-89
2022/09/12 07:02:30;;;;;;;9.90;6.77;;;14.30;97.30;;;;;;5002961;28;20884;-89
2022/09/12 07:04:55;;;;;;;6.57;4.77;;;14.40;97.30;;;;;;4995180;28;20503;-90
2022/09/12 07:07:21;;;;;;;13.93;5.63;;;14.50;97.30;;;;;;5011257;28;20217;-89
2022/09/12 07:09:48;;;;;;;11.33;5.43;;;14.50;97.30;;;;;;4994742;28;20209;-90
2022/09/12 07:12:13;;;;;;;13.57;5.20;;;14.60;97.30;;;;;;5011179;28;20186;-89
2022/09/12 07:14:39;;;;;;;17.87;7.80;;;14.60;97.30;;;;;;4994276;28;20427;-89
2022/09/12 07:17:04;;;;;;;10.47;6.07;;;14.70;97.30;;;;;;4994884;28;20509;-89
2022/09/12 07:19:30;;;;;;;8.83;4.83;;;14.70;97.30;;;;;;4994830;28;20580;-89
2022/09/12 07:21:55;;;;;;;9.77;3.90;;;14.80;97.30;;;;;;5010937;28;20601;-89
2022/09/12 07:24:21;;;;;;;9.10;5.40;;;14.90;97.30;;;;;;4994626;28;20176;-89
2022/09/12 07:26:46;;;;;;;13.00;6.93;;;15.00;97.30;;;;;;4994288;28;20205;-89
2022/09/12 07:29:15;;;;;;;6.60;4.27;;;15.10;97.30;;;;;;5007201;28;20174;-89
2022/09/12 07:31:40;;;;;;;11.40;6.90;;;15.20;97.30;;;;;;4985548;28;20566;-89
2022/09/12 07:34:06;;;;;;;5.10;3.87;;;15.40;97.30;;;;;;5011123;28;20412;-89
2022/09/12 07:36:32;;;;;;;10.00;5.63;;;15.50;97.30;;;;;;5012001;28;20197;-89
2022/09/12 07:38:57;;;;;;;5.93;4.10;;;15.60;97.30;;;;;;4994226;28;20201;-89
2022/09/12 07:41:28;;;;;;;10.20;5.80;;;15.60;97.30;;;;;;5010555;28;20640;-88
2022/09/12 07:43:58;;;;;;;10.60;4.63;;;15.70;97.30;;;;;;4994120;28;20247;-88
2022/09/12 07:46:26;;;;;;;6.20;4.17;;;15.80;97.30;;;;;;4993972;28;20907;-89
2022/09/12 07:48:53;;;;;;;11.57;5.23;;;15.80;97.30;;;;;;4995946;28;20515;-89
2022/09/12 07:51:21;;;;;;;6.87;3.27;;;15.90;97.30;;;;;;5026653;28;20483;-89
2022/09/12 07:53:48;;;;;;;8.63;6.00;;;16.00;97.30;;;;;;5028282;28;20428;-91
2022/09/12 07:56:15;;;;;;;8.33;4.90;;;16.00;97.30;;;;;;4997609;28;20462;-91
2022/09/12 07:58:42;;;;;;;5.37;3.47;;;16.00;97.30;;;;;;5002672;28;20474;-92
2022/09/12 08:01:09;;;;;;;6.87;3.67;;;16.10;97.30;;;;;;5017458;28;20408;-92
2022/09/12 08:03:42;;;;;;;6.40;4.07;;;16.20;97.30;;;;;;5017571;28;20420;-91
2022/09/12 08:06:10;;;;;;;7.57;3.87;;;16.20;97.30;;;;;;5016834;28;20462;-92
2022/09/12 08:08:38;;;;;;;6.63;3.27;;;16.20;97.30;;;;;;4998329;28;20487;-91
2022/09/12 08:11:09;;;;;;;5.60;3.30;;;16.20;97.30;;;;;;4993436;28;20811;-92
2022/09/12 08:13:53;;;;;;;7.97;4.10;;;16.20;97.30;;;;;;4982669;28;20852;-91
2022/09/12 08:16:25;;;;;;;7.47;3.60;;;16.30;97.30;;;;;;4994041;28;21021;-91
2022/09/12 08:18:51;;;;;;;5.53;3.60;;;16.30;97.30;;;;;;4990946;28;20476;-91
2022/09/12 08:21:25;;;;;;;8.50;3.53;;;16.40;97.30;;;;;;5010409;28;21008;-91
2022/09/12 08:23:55;;;;;;;5.60;4.43;;;16.50;97.30;;;;;;4993851;28;20427;-91
2022/09/12 08:26:21;;;;;;;5.27;2.40;;;16.60;97.30;;;;;;5012359;28;20447;-92
2022/09/12 08:28:54;;;;;;;5.27;4.03;;;16.70;97.30;;;;;;5010356;28;20810;-91
2022/09/12 08:31:23;;;;;;;4.57;3.93;;;16.80;97.30;;;;;;4998817;28;20181;-92
2022/09/12 08:33:49;;;;;;;7.73;3.70;;;16.90;97.30;;;;;;4994297;28;20510;-92
2022/09/12 08:36:20;;;;;;;7.53;3.50;;;16.90;97.30;;;;;;4994578;28;20489;-91
2022/09/12 08:38:48;;;;;;;9.40;4.40;;;16.90;97.30;;;;;;4994238;28;20533;-91
2022/09/12 08:41:17;;;;;;;5.07;2.57;;;17.00;97.30;;;;;;4993993;28;20567;-91
2022/09/12 08:43:58;;;;;;;4.73;2.70;;;17.00;97.30;;;;;;4994361;28;20994;-92
2022/09/12 08:46:30;;;;;;;4.87;3.60;;;17.10;97.30;;;;;;4994300;28;20443;-90
2022/09/12 08:48:59;;;;;;;3.07;2.40;;;17.20;97.30;;;;;;4994405;28;20886;-92
2022/09/12 08:51:26;;;;;;;4.17;1.90;;;17.30;97.30;;;;;;5011729;28;20470;-91
2022/09/12 08:53:55;;;;;;;3.70;2.87;;;17.40;97.30;;;;;;4993700;28;20707;-91
2022/09/12 08:56:21;;;;;;;4.70;2.90;;;17.40;97.30;;;;;;4989824;28;20501;-90
2022/09/12 08:58:47;;;;;;;5.33;3.30;;;17.50;97.30;;;;;;4993971;28;20474;-92
2022/09/12 09:01:33;;;;;;;10.93;4.23;;;17.60;97.30;;;;;;4994090;28;20759;-92
2022/09/12 09:04:02;;;;;;;3.57;2.37;;;17.70;97.30;;;;;;5000504;28;20441;-90
2022/09/12 09:06:55;;;;;;;3.00;2.30;;;17.70;97.30;;;;;;5006946;28;20428;-91
2022/09/12 09:09:36;;;;;;;2.77;2.40;;;17.70;97.30;;;;;;4993823;28;20423;-91
2022/09/12 09:12:29;;;;;;;4.80;3.47;;;17.70;97.30;;;;;;4994157;28;20423;-91
2022/09/12 09:15:34;;;;;;;3.53;2.30;;;17.80;97.30;;;;;;4993791;28;20426;-91
2022/09/12 09:18:05;;;;;;;2.80;1.67;;;17.90;97.30;;;;;;5005746;28;20490;-90
2022/09/12 09:20:41;;;;;;;2.83;2.20;;;18.00;97.30;;;;;;4993323;28;20961;-91
2022/09/12 09:23:32;;;;;;;2.67;1.77;;;18.00;97.30;;;;;;4993085;28;20443;-92
2022/09/12 09:26:13;;;;;;;1.43;1.40;;;18.10;97.30;;;;;;4993222;28;20708;-92
2022/09/12 09:28:45;;;;;;;1.53;1.43;;;18.10;97.30;;;;;;4993568;28;20460;-91
2022/09/12 09:31:15;;;;;;;3.70;2.30;;;18.00;97.30;;;;;;4993230;28;20952;-91
2022/09/12 09:33:50;;;;;;;4.93;2.47;;;18.00;97.30;;;;;;4992896;28;20974;-91
2022/09/12 09:37:05;;;;;;;2.80;2.23;;;18.00;97.30;;;;;;4997828;28;20443;-90
2022/09/12 09:39:33;;;;;;;1.90;1.50;;;18.10;97.30;;;;;;4993034;28;20429;-91
2022/09/12 09:42:17;;;;;;;2.20;1.57;;;18.10;97.30;;;;;;4992851;28;20780;-91
2022/09/12 09:44:46;;;;;;;1.30;1.30;;;18.10;97.30;;;;;;4993262;28;20408;-91
2022/09/12 09:47:11;;;;;;;2.47;2.27;;;18.20;97.30;;;;;;4993077;28;20863;-92
2022/09/12 09:49:42;;;;;;;2.27;1.90;;;18.20;97.30;;;;;;5010707;28;20463;-92
2022/09/12 09:52:34;;;;;;;2.67;1.70;;;18.20;97.30;;;;;;4993222;28;20208;-91
2022/09/12 09:55:04;;;;;;;2.60;2.00;;;18.10;97.30;;;;;;4994757;28;20430;-91
2022/09/12 09:57:32;;;;;;;1.60;1.53;;;18.10;97.30;;;;;;4992680;28;20471;-91
2022/09/12 10:00:22;;;;;;;1.77;1.70;;;18.10;97.30;;;;;;4992695;28;20440;-91
2022/09/12 10:03:03;;;;;;;2.70;2.03;;;18.10;97.30;;;;;;4993000;28;20423;-92
2022/09/12 10:05:43;;;;;;;4.67;3.33;;;18.10;97.30;;;;;;4998849;28;20415;-91
2022/09/12 10:08:25;;;;;;;1.53;1.40;;;18.10;97.30;;;;;;4992548;28;20427;-91
2022/09/12 10:11:05;;;;;;;3.40;1.90;;;18.10;97.30;;;;;;5004943;28;20926;-91
2022/09/12 10:13:53;;;;;;;3.30;1.87;;;18.20;97.30;;;;;;4996468;28;20438;-91
2022/09/12 10:16:35;;;;;;;4.93;1.80;;;18.30;97.30;;;;;;4996077;28;20451;-91
2022/09/12 10:19:02;;;;;;;2.00;1.43;;;18.40;97.30;;;;;;4996601;28;20912;-92
2022/09/12 10:21:53;;;;;;;5.70;3.37;;;18.60;97.30;;;;;;4996888;28;20949;-91
2022/09/12 10:27:10;;;;;;;1.90;1.80;;;19.00;97.30;;;;;;5029665;28;20463;-85
2022/09/12 10:29:47;;;;;;;1.43;1.40;;;19.20;97.30;;;;;;5030624;28;20435;-86
2022/09/12 10:32:23;;;;;;;1.00;0.90;;;19.40;97.30;;;;;;5031257;28;20527;-86
2022/09/12 10:34:54;;;;;;;1.97;1.70;;;19.60;97.30;;;;;;5012307;28;20981;-84
2022/09/12 10:37:29;;;;;;;2.30;1.77;;;19.80;97.30;;;;;;4995099;28;20806;-85
2022/09/12 10:39:57;;;;;;;2.03;1.90;;;20.00;97.30;;;;;;5012723;28;20758;-85
2022/09/12 10:42:50;;;;;;;1.70;1.33;;;20.10;97.30;;;;;;5011322;28;20421;-85
2022/09/12 10:45:26;;;;;;;2.77;1.60;;;20.30;97.30;;;;;;4994373;28;20436;-84
2022/09/12 10:47:53;;;;;;;4.30;2.30;;;20.40;96.90;;;;;;5011361;28;20426;-85
2022/09/12 10:50:36;;;;;;;3.00;1.67;;;20.60;97.30;;;;;;4999943;28;20444;-85
2022/09/12 10:53:13;;;;;;;1.83;1.60;;;20.70;96.90;;;;;;5010011;28;21021;-83
2022/09/12 10:55:45;;;;;;;2.13;1.40;;;20.70;96.10;;;;;;5002214;28;20786;-84
2022/09/12 10:58:35;;;;;;;3.23;1.90;;;20.60;95.50;;;;;;4994547;28;20456;-84
2022/09/12 11:01:18;;;;;;;1.67;1.30;;;20.50;95.00;;;;;;5010988;28;20503;-85
2022/09/12 11:04:15;;;;;;;1.73;1.63;;;20.40;95.30;;;;;;4994537;28;20468;-84
2022/09/12 11:07:05;;;;;;;1.40;1.30;;;20.20;95.50;;;;;;4994984;28;20938;-84
2022/09/12 11:09:41;;;;;;;1.23;1.20;;;20.20;95.80;;;;;;4985190;28;20776;-87
2022/09/12 11:12:22;;;;;;;1.63;1.60;;;20.10;95.30;;;;;;5007052;28;20858;-84
2022/09/12 11:15:16;;;;;;;2.70;1.80;;;20.00;95.00;;;;;;5005311;28;20412;-85
2022/09/12 11:18:02;;;;;;;4.13;2.73;;;19.90;95.00;;;;;;4993052;28;20459;-87
2022/09/12 11:20:45;;;;;;;1.40;1.30;;;19.80;95.20;;;;;;4994213;28;20417;-84
2022/09/12 11:23:39;;;;;;;1.57;1.40;;;19.80;95.60;;;;;;4993629;28;20467;-85
2022/09/12 11:26:29;;;;;;;1.73;1.70;;;19.70;95.60;;;;;;5011396;28;20456;-84
2022/09/12 11:29:09;;;;;;;1.70;1.70;;;19.70;95.40;;;;;;4997008;28;20508;-85
2022/09/12 11:31:59;;;;;;;2.13;2.00;;;19.60;95.50;;;;;;4994314;28;20420;-85
2022/09/12 11:34:43;;;;;;;2.20;2.00;;;19.60;95.40;;;;;;4993460;28;20446;-85
2022/09/12 11:37:46;;;;;;;1.73;1.70;;;19.60;95.20;;;;;;4993850;28;20919;-84
2022/09/12 11:40:29;;;;;;;2.13;1.97;;;19.60;94.70;;;;;;4983005;28;20408;-84
2022/09/12 11:43:00;;;;;;;2.20;2.00;;;19.60;94.70;;;;;;5010059;28;20439;-84
2022/09/12 11:45:38;;;;;;;1.50;1.40;;;19.60;94.70;;;;;;4993880;28;20419;-84
2022/09/12 11:48:10;;;;;;;3.33;1.60;;;19.60;95.00;;;;;;5010041;28;20839;-85
2022/09/12 11:50:36;;;;;;;1.60;1.50;;;19.60;95.20;;;;;;4993260;28;20456;-85
2022/09/12 11:53:17;;;;;;;1.57;1.33;;;19.70;95.00;;;;;;5002537;28;20824;-86
2022/09/12 11:56:18;;;;;;;2.50;1.77;;;19.70;94.90;;;;;;4986637;28;20177;-85
2022/09/12 11:58:51;;;;;;;1.70;1.60;;;19.90;95.00;;;;;;5008779;28;20467;-87
2022/09/12 12:01:23;;;;;;;2.50;1.57;;;20.10;94.50;;;;;;4984869;28;20409;-85
2022/09/12 12:03:51;;;;;;;1.27;1.10;;;20.20;94.70;;;;;;4994473;28;20515;-85
2022/09/12 12:06:30;;;;;;;2.50;2.30;;;20.30;94.70;;;;;;4993163;28;20424;-85
2022/09/12 12:08:56;;;;;;;2.30;1.87;;;20.30;94.30;;;;;;4994267;28;20435;-87
2022/09/12 12:11:34;;;;;;;1.87;1.80;;;20.40;93.80;;;;;;4995308;28;20482;-88
2022/09/12 12:14:04;;;;;;;2.13;1.97;;;20.30;93.70;;;;;;4995502;28;20489;-88
2022/09/12 12:16:36;;;;;;;1.70;1.60;;;20.30;94.00;;;;;;4994463;28;20451;-88
2022/09/12 12:19:05;;;;;;;1.53;1.50;;;20.30;94.10;;;;;;4993318;28;20457;-90
2022/09/12 12:21:41;;;;;;;1.57;1.47;;;20.30;93.60;;;;;;4990476;28;21016;-90
2022/09/12 12:24:06;;;;;;;4.00;2.27;;;20.20;93.20;;;;;;4995340;28;20443;-90
2022/09/12 12:26:41;;;;;;;1.50;1.40;;;20.20;92.90;;;;;;5009343;28;20819;-89
2022/09/12 12:29:30;;;;;;;1.40;1.30;;;20.20;92.60;;;;;;4993117;28;20173;-91
2022/09/12 12:31:58;;;;;;;1.80;1.43;;;20.20;92.60;;;;;;4992310;28;20428;-90
2022/09/12 12:34:33;;;;;;;1.83;1.73;;;20.10;92.10;;;;;;5001817;28;21036;-89
2022/09/12 12:37:19;;;;;;;3.53;1.67;;;20.10;92.10;;;;;;4997885;28;20449;-89
2022/09/12 12:39:52;;;;;;;1.47;1.37;;;20.10;92.30;;;;;;5011005;28;20415;-89
2022/09/12 12:42:33;;;;;;;13.27;2.03;;;20.10;92.10;;;;;;4997117;28;20435;-89
2022/09/12 12:45:05;;;;;;;1.80;1.70;;;20.10;92.30;;;;;;5010767;28;20474;-89
2022/09/12 12:47:41;;;;;;;1.87;1.80;;;20.10;92.50;;;;;;5000016;28;20938;-89
2022/09/12 12:50:19;;;;;;;1.93;1.57;;;20.10;93.00;;;;;;4989406;28;20504;-90
2022/09/12 12:53:00;;;;;;;1.50;1.40;;;20.20;93.50;;;;;;4984668;28;20530;-90
2022/09/12 12:55:30;;;;;;;1.47;1.40;;;20.20;94.70;;;;;;5002194;28;20450;-90
2022/09/12 12:57:58;;;;;;;2.57;2.37;;;20.20;95.70;;;;;;5010938;28;20451;-89
2022/09/12 13:00:23;;;;;;;1.60;1.50;;;20.30;96.10;;;;;;5000291;28;20415;-89
2022/09/12 13:03:05;;;;;;;2.50;2.17;;;20.30;96.00;;;;;;4976311;28;20499;-90
2022/09/12 13:05:43;;;;;;;4.13;2.00;;;20.40;96.10;;;;;;4992731;28;20204;-90
2022/09/12 13:08:17;;;;;;;5.23;1.93;;;20.40;96.00;;;;;;4991605;28;20428;-90
2022/09/12 13:10:55;;;;;;;2.37;1.90;;;20.50;96.00;;;;;;5012018;28;20964;-89
2022/09/12 13:13:30;;;;;;;1.57;1.47;;;20.60;96.40;;;;;;5018809;28;20465;-89
2022/09/12 13:15:55;;;;;;;3.50;2.10;;;20.80;96.70;;;;;;4999656;28;20525;-91
2022/09/12 13:18:44;;;;;;;4.80;1.90;;;21.00;95.60;;;;;;5010780;28;20464;-90